createdAt,value
2023-02-04T00:01:10.754Z,17.20
2023-02-04T00:04:16.748Z,17.40
2023-02-04T00:07:20.889Z,18.80
2023-02-04T00:10:26.080Z,26.40
2023-02-04T00:13:28.825Z,17.40
2023-02-04T00:16:31.485Z,14.90
2023-02-04T00:19:35.665Z,13.20
2023-02-04T00:22:37.982Z,9.30
2023-02-04T00:25:41.539Z,8.70
2023-02-04T00:28:45.581Z,14.80
2023-02-04T00:31:51.669Z,13.30
2023-02-04T00:34:56.619Z,14.60
2023-02-04T00:38:09.056Z,8.70
2023-02-04T00:41:11.847Z,10.80
2023-02-04T00:44:17.716Z,9.10
2023-02-04T00:47:21.429Z,11.10
2023-02-04T00:50:25.851Z,12.20
2023-02-04T00:53:29.013Z,10.40
2023-02-04T00:56:35.691Z,10.70
2023-02-04T00:59:41.384Z,10.90
2023-02-04T01:02:49.966Z,11.20
2023-02-04T01:05:52.650Z,12.60
2023-02-04T01:08:58.005Z,12.70
2023-02-04T01:12:02.918Z,12.80
2023-02-04T01:15:07.485Z,13.50
2023-02-04T01:18:14.045Z,12.20
2023-02-04T01:21:20.134Z,11.90
2023-02-04T01:24:43.124Z,13.90
2023-02-04T01:28:08.782Z,11.70
2023-02-04T01:31:12.979Z,10.10
2023-02-04T01:34:21.293Z,8.30
2023-02-04T01:37:26.440Z,9.10
2023-02-04T01:40:29.710Z,11.60
2023-02-04T01:43:35.068Z,10.10
2023-02-04T01:46:39.858Z,10.10
2023-02-04T01:49:42.925Z,9.10
2023-02-04T01:52:47.696Z,10.80
2023-02-04T01:55:51.143Z,10.90
2023-02-04T01:58:57.207Z,11.30
2023-02-04T02:02:03.807Z,11.40
2023-02-04T02:05:14.563Z,13.90
2023-02-04T02:08:18.136Z,15.90
2023-02-04T02:11:21.900Z,12.00
2023-02-04T02:14:29.068Z,10.50
2023-02-04T02:17:34.951Z,10.30
2023-02-04T02:20:37.982Z,9.40
2023-02-04T02:23:48.265Z,16.20
2023-02-04T02:26:51.590Z,16.60
2023-02-04T02:29:55.474Z,12.50
2023-02-04T02:32:58.217Z,13.80
2023-02-04T02:36:02.139Z,18.80
2023-02-04T02:39:05.128Z,13.60
2023-02-04T02:42:17.144Z,14.10
2023-02-04T02:45:29.986Z,14.10
2023-02-04T02:48:33.675Z,13.40
2023-02-04T02:51:37.198Z,15.20
2023-02-04T02:54:40.974Z,12.80
2023-02-04T02:57:46.455Z,13.70
2023-02-04T03:00:48.994Z,14.00
2023-02-04T03:03:53.222Z,5.50
2023-02-04T03:06:57.081Z,10.40
2023-02-04T03:10:00.822Z,6.40
2023-02-04T03:13:05.364Z,8.90
2023-02-04T03:16:08.493Z,9.70
2023-02-04T03:19:13.106Z,10.60
2023-02-04T03:22:17.594Z,9.60
2023-02-04T03:25:24.235Z,8.90
2023-02-04T03:28:29.879Z,6.90
2023-02-04T03:31:35.311Z,8.30
2023-02-04T03:34:39.288Z,7.30
2023-02-04T03:37:44.828Z,8.80
2023-02-04T03:40:47.923Z,7.00
2023-02-04T03:43:53.181Z,8.20
2023-02-04T03:46:56.834Z,5.30
2023-02-04T03:49:59.105Z,5.70
2023-02-04T03:53:04.955Z,6.50
2023-02-04T03:56:11.642Z,7.50
2023-02-04T03:59:16.180Z,8.00
2023-02-04T04:02:20.130Z,6.50
2023-02-04T04:05:24.577Z,8.20
2023-02-04T04:08:26.758Z,8.00
2023-02-04T04:11:31.039Z,6.60
2023-02-04T04:14:33.736Z,5.60
2023-02-04T04:17:38.832Z,5.40
2023-02-04T04:20:43.848Z,5.00
2023-02-04T04:23:47.220Z,6.10
2023-02-04T04:26:51.102Z,7.10
2023-02-04T04:29:54.572Z,4.90
2023-02-04T04:32:56.711Z,8.00
2023-02-04T04:36:00.119Z,6.00
2023-02-04T04:39:06.013Z,6.70
2023-02-04T04:42:09.431Z,5.10
2023-02-04T04:45:14.494Z,4.90
2023-02-04T04:48:17.795Z,4.90
2023-02-04T04:51:21.722Z,4.10
2023-02-04T04:54:24.044Z,4.20
2023-02-04T04:57:27.174Z,4.20
2023-02-04T05:00:32.275Z,3.60
2023-02-04T05:03:39.401Z,3.50
2023-02-04T05:06:42.259Z,3.30
2023-02-04T05:09:46.373Z,3.50
2023-02-04T05:12:52.576Z,3.20
2023-02-04T05:15:59.664Z,3.50
2023-02-04T05:19:07.356Z,4.10
2023-02-04T05:22:12.497Z,4.90
2023-02-04T05:25:16.494Z,4.60
2023-02-04T05:28:20.384Z,5.30
2023-02-04T05:31:24.594Z,5.30
2023-02-04T05:34:31.371Z,5.50
2023-02-04T05:37:34.268Z,4.80
2023-02-04T05:40:40.526Z,4.30
2023-02-04T05:43:44.897Z,4.80
2023-02-04T05:46:51.305Z,5.20
2023-02-04T05:49:55.592Z,3.90
2023-02-04T05:52:58.230Z,3.60
2023-02-04T05:56:06.190Z,3.90
2023-02-04T05:59:08.804Z,3.70
2023-02-04T06:02:14.412Z,2.90
2023-02-04T06:05:17.949Z,3.50
2023-02-04T06:08:24.696Z,5.30
2023-02-04T06:11:30.998Z,3.70
2023-02-04T06:14:36.965Z,4.40
2023-02-04T06:17:40.666Z,3.90
2023-02-04T06:20:45.583Z,4.20
2023-02-04T06:23:52.349Z,5.20
2023-02-04T06:26:56.397Z,4.20
2023-02-04T06:30:00.988Z,4.20
2023-02-04T06:33:12.914Z,4.10
2023-02-04T06:36:19.381Z,5.00
2023-02-04T06:39:28.304Z,4.20
2023-02-04T06:42:31.702Z,4.20
2023-02-04T06:45:38.172Z,4.40
2023-02-04T06:48:41.835Z,4.50
2023-02-04T06:51:45.392Z,5.50
2023-02-04T06:54:48.477Z,5.10
2023-02-04T06:57:51.410Z,5.20
2023-02-04T07:00:56.129Z,4.20
2023-02-04T07:04:01.554Z,5.20
2023-02-04T07:07:06.334Z,4.80
2023-02-04T07:10:10.203Z,5.70
2023-02-04T07:13:35.915Z,5.50
2023-02-04T07:16:39.402Z,3.60
2023-02-04T07:19:43.482Z,4.30
2023-02-04T07:22:47.166Z,4.70
2023-02-04T07:25:55.939Z,4.80
2023-02-04T07:28:59.163Z,5.10
2023-02-04T07:32:04.043Z,5.60
2023-02-04T07:35:06.790Z,4.30
2023-02-04T07:38:11.434Z,3.90
2023-02-04T07:41:15.051Z,3.60
2023-02-04T07:44:18.259Z,3.70
2023-02-04T07:47:21.838Z,4.00
2023-02-04T07:50:26.367Z,3.60
2023-02-04T07:53:29.646Z,3.30
2023-02-04T07:56:33.934Z,3.50
2023-02-04T07:59:36.555Z,4.00
2023-02-04T08:02:38.721Z,3.90
2023-02-04T08:05:43.090Z,4.40
2023-02-04T08:08:48.709Z,2.90
2023-02-04T08:11:51.939Z,3.90
2023-02-04T08:14:56.661Z,4.60
2023-02-04T08:18:00.415Z,6.60
2023-02-04T08:21:05.818Z,3.50
2023-02-04T08:24:12.596Z,4.00
2023-02-04T08:27:17.980Z,3.90
2023-02-04T08:30:21.623Z,4.50
2023-02-04T08:33:26.230Z,4.90
2023-02-04T08:36:28.315Z,2.70
2023-02-04T08:39:37.854Z,3.60
2023-02-04T08:42:43.595Z,3.10
2023-02-04T08:45:46.152Z,2.70
2023-02-04T08:48:49.612Z,3.60
2023-02-04T08:51:55.673Z,3.90
2023-02-04T08:54:59.070Z,3.40
2023-02-04T08:58:03.583Z,2.30
2023-02-04T09:01:11.632Z,1.50
2023-02-04T09:04:15.724Z,1.80
2023-02-04T09:07:20.423Z,2.50
2023-02-04T09:10:24.535Z,2.30
2023-02-04T09:13:30.872Z,2.20
2023-02-04T09:16:37.707Z,2.90
2023-02-04T09:19:41.938Z,3.40
2023-02-04T09:22:44.780Z,2.60
2023-02-04T09:25:47.506Z,2.80
2023-02-04T09:28:52.092Z,3.30
2023-02-04T09:31:56.448Z,2.40
2023-02-04T09:34:59.650Z,2.30
2023-02-04T09:38:02.032Z,3.00
2023-02-04T09:41:08.682Z,3.20
2023-02-04T12:13:25.014Z,3.40
2023-02-04T12:16:29.218Z,2.90
2023-02-04T12:19:32.671Z,3.20
2023-02-04T12:22:37.676Z,3.10
2023-02-04T12:25:51.124Z,3.00
2023-02-04T12:29:02.417Z,2.70
2023-02-04T12:32:06.452Z,2.80
2023-02-04T12:35:14.660Z,2.60
2023-02-04T12:38:20.917Z,3.80
2023-02-04T12:44:35.366Z,3.30
2023-02-04T12:47:47.775Z,3.20
2023-02-04T12:50:55.554Z,4.30
2023-02-04T12:57:11.319Z,2.90
2023-02-04T13:00:30.053Z,2.90
2023-02-04T13:03:36.094Z,3.00
2023-02-04T13:06:46.863Z,4.00
2023-02-04T13:09:51.941Z,3.00
2023-02-04T13:12:59.909Z,2.80
2023-02-04T13:16:08.213Z,5.90
2023-02-04T13:19:12.725Z,2.20
2023-02-04T13:22:17.991Z,1.90
2023-02-04T13:25:27.429Z,2.00
2023-02-04T13:28:31.746Z,2.20
2023-02-04T13:31:41.406Z,2.50
2023-02-04T13:34:45.998Z,3.10
2023-02-04T13:37:50.787Z,2.10
2023-02-04T13:41:04.734Z,2.80
2023-02-04T13:44:12.738Z,2.30
2023-02-04T13:47:18.282Z,1.30
2023-02-04T13:50:26.286Z,1.80
2023-02-04T13:53:31.821Z,1.80
2023-02-04T13:56:36.739Z,2.60
2023-02-04T13:59:41.062Z,2.10
2023-02-04T14:02:48.289Z,2.60
2023-02-04T14:05:55.530Z,2.30
2023-02-04T14:09:00.475Z,2.60
2023-02-04T14:12:07.283Z,1.50
2023-02-04T14:15:15.587Z,1.60
2023-02-04T14:18:19.288Z,1.80
2023-02-04T14:21:28.003Z,1.80
2023-02-04T14:24:51.466Z,1.50
2023-02-04T14:27:58.711Z,1.90
2023-02-04T14:31:06.105Z,2.20
2023-02-04T14:34:11.891Z,2.50
2023-02-04T14:37:16.297Z,2.70
2023-02-04T14:40:22.315Z,2.10
2023-02-04T14:43:28.944Z,1.60
2023-02-04T14:46:35.527Z,2.50
2023-02-04T14:49:44.704Z,1.90
2023-02-04T14:52:59.912Z,2.60
2023-02-04T14:56:08.226Z,2.60
2023-02-04T14:59:18.320Z,2.50
2023-02-04T15:02:25.790Z,1.70
2023-02-04T15:05:40.783Z,2.20
2023-02-04T15:08:46.486Z,2.70
2023-02-04T15:11:59.142Z,3.00
2023-02-04T15:15:06.657Z,2.70
2023-02-04T15:19:10.614Z,3.20
2023-02-04T15:22:29.429Z,2.80
2023-02-04T15:25:39.638Z,2.80
2023-02-04T15:28:51.689Z,2.30
2023-02-04T15:32:00.577Z,1.90
2023-02-04T15:35:09.034Z,1.80
2023-02-04T15:38:20.053Z,1.70
2023-02-04T15:41:26.301Z,4.40
2023-02-04T15:44:41.668Z,2.00
2023-02-04T15:47:56.413Z,2.80
2023-02-04T15:51:15.750Z,2.80
2023-02-04T15:54:26.042Z,2.80
2023-02-04T15:57:40.362Z,3.20
2023-02-04T16:01:02.576Z,3.90
2023-02-04T16:04:12.897Z,3.70
2023-02-04T16:07:56.917Z,2.70
2023-02-04T16:11:33.369Z,3.20
2023-02-04T16:15:27.391Z,4.00
2023-02-04T16:19:12.247Z,2.90
2023-02-04T16:23:15.021Z,3.40
2023-02-04T16:31:38.891Z,4.10
2023-02-04T16:34:48.498Z,3.00
2023-02-04T16:37:52.969Z,2.80
2023-02-04T16:44:28.156Z,4.70
2023-02-04T16:47:48.204Z,3.30
2023-02-04T16:51:00.727Z,3.50
2023-02-04T16:54:12.400Z,4.10
2023-02-04T16:57:20.020Z,3.60
2023-02-04T17:00:47.115Z,4.00
2023-02-04T17:04:07.061Z,3.30
2023-02-04T17:07:13.012Z,3.70
2023-02-04T17:19:34.736Z,3.50
2023-02-04T17:23:01.329Z,2.90
2023-02-04T17:26:10.444Z,3.30
2023-02-04T17:29:56.430Z,3.60
2023-02-04T17:33:28.746Z,2.90
2023-02-04T17:36:33.636Z,2.90
2023-02-04T17:50:08.692Z,3.60
2023-02-04T17:53:11.911Z,3.00
2023-02-04T17:56:16.157Z,3.50
2023-02-04T17:59:19.299Z,3.60
2023-02-04T18:02:32.899Z,4.00
2023-02-04T18:05:38.997Z,3.40
2023-02-04T18:08:41.700Z,2.80
2023-02-04T18:11:50.551Z,3.10
2023-02-04T18:14:54.969Z,4.40
2023-02-04T18:18:11.665Z,3.50
2023-02-04T18:21:24.643Z,3.20
2023-02-04T18:24:39.206Z,2.40
2023-02-04T18:27:43.377Z,3.40
2023-02-04T18:30:53.728Z,2.90
2023-02-04T18:33:56.848Z,2.40
2023-02-04T18:37:03.995Z,3.30
2023-02-04T18:40:10.192Z,2.70
2023-02-04T18:43:29.474Z,3.30
2023-02-04T18:46:36.019Z,4.60
2023-02-04T18:49:43.945Z,3.50
2023-02-04T18:52:47.979Z,4.40
2023-02-04T18:55:52.854Z,2.60
2023-02-04T18:58:57.075Z,3.50
2023-02-04T19:02:00.346Z,3.50
2023-02-04T19:05:19.554Z,3.30
2023-02-04T19:08:43.767Z,2.50
2023-02-04T19:11:54.396Z,2.50
2023-02-04T19:15:10.359Z,2.60
2023-02-04T19:18:41.733Z,2.50
2023-02-04T19:21:45.858Z,3.00
2023-02-04T19:24:55.354Z,2.60
2023-02-04T19:28:02.433Z,3.10
2023-02-04T19:31:10.833Z,2.30
2023-02-04T19:34:33.149Z,2.70
2023-02-04T19:37:40.162Z,2.30
2023-02-04T19:40:43.903Z,2.90
2023-02-04T19:43:47.907Z,2.60
2023-02-04T19:46:55.473Z,2.70
2023-02-04T19:50:13.362Z,2.90
2023-02-04T19:53:21.259Z,2.10
2023-02-04T19:56:39.939Z,2.70
2023-02-04T19:59:43.645Z,3.30
2023-02-04T20:03:25.259Z,3.20
2023-02-04T20:06:37.410Z,3.10
2023-02-04T20:09:44.317Z,2.70
2023-02-04T20:12:51.815Z,2.50
2023-02-04T20:16:01.420Z,2.70
2023-02-04T20:19:23.113Z,2.60
2023-02-04T20:22:45.034Z,2.90
2023-02-04T20:25:52.558Z,3.10
2023-02-04T20:28:55.658Z,3.30
2023-02-04T20:31:59.395Z,3.80
2023-02-04T20:35:12.213Z,3.30
2023-02-04T20:38:18.374Z,3.30
2023-02-04T20:41:21.874Z,3.40
2023-02-04T20:44:39.949Z,2.90
2023-02-04T20:47:45.332Z,2.90
2023-02-04T20:50:52.567Z,3.60
2023-02-04T20:54:06.920Z,2.70
2023-02-04T20:57:21.639Z,3.60
2023-02-04T21:00:34.540Z,2.70
2023-02-04T21:03:38.322Z,2.90
2023-02-04T21:06:55.243Z,2.90
2023-02-04T21:09:57.355Z,2.10
2023-02-04T21:13:06.030Z,2.50
2023-02-04T21:16:11.687Z,3.00
2023-02-04T21:19:16.144Z,3.10
2023-02-04T21:22:22.867Z,3.00
2023-02-04T21:28:34.209Z,2.40
2023-02-04T21:31:38.530Z,3.10
2023-02-04T21:34:44.504Z,2.90
2023-02-04T21:37:48.457Z,2.20
2023-02-04T21:40:53.670Z,2.90
2023-02-04T21:43:55.879Z,2.30
2023-02-04T21:46:59.945Z,2.20
2023-02-04T21:50:02.431Z,2.80
2023-02-04T21:53:08.222Z,2.50
2023-02-04T21:56:14.208Z,2.20
2023-02-04T21:59:21.829Z,2.50
2023-02-04T22:05:33.803Z,2.40
2023-02-04T22:08:36.781Z,2.60
2023-02-04T22:11:43.030Z,2.50
2023-02-04T22:14:50.703Z,3.00
2023-02-04T22:17:56.040Z,2.30
2023-02-04T22:21:00.117Z,2.40
2023-02-04T22:24:02.632Z,4.60
2023-02-04T22:27:06.664Z,3.20
2023-02-04T22:30:13.419Z,2.90
2023-02-04T22:33:18.755Z,3.00
2023-02-04T22:36:21.255Z,2.90
2023-02-04T22:39:25.539Z,2.80
2023-02-04T22:42:29.910Z,3.00
2023-02-04T22:45:32.799Z,2.80
2023-02-04T22:48:36.412Z,3.00
2023-02-04T22:51:40.722Z,3.50
2023-02-04T22:54:50.133Z,2.30
2023-02-04T22:57:52.864Z,3.40
2023-02-04T23:01:01.002Z,3.60
2023-02-04T23:04:06.377Z,2.70
2023-02-04T23:07:09.726Z,2.80
2023-02-04T23:10:15.719Z,2.90
2023-02-04T23:13:40.948Z,2.70
2023-02-04T23:16:46.054Z,3.00
2023-02-04T23:19:50.615Z,2.80
2023-02-04T23:22:55.418Z,3.00
2023-02-04T23:25:59.926Z,2.70
2023-02-04T23:29:03.299Z,3.60
2023-02-04T23:32:05.392Z,2.50
2023-02-04T23:35:08.808Z,2.80
2023-02-04T23:38:12.263Z,2.90
2023-02-04T23:41:16.378Z,2.80
2023-02-04T23:44:22.497Z,2.80
2023-02-04T23:47:26.363Z,2.90
2023-02-04T23:50:30.633Z,3.00
2023-02-04T23:53:37.506Z,2.30
2023-02-04T23:56:42.747Z,2.10
2023-02-04T23:59:50.244Z,3.00
